Time;durP1;ratioP1;P1;durP2;ratioP2;P2;SDS_P1;SDS_P2;PMS_P1;PMS_P2;Temp;Humidity;BMP_temperature;BMP_pressure;BME280_temperature;BME280_humidity;BME280_pressure;Samples;Min_cycle;Max_cycle;Signal;HPM_P1;HPM_P2
2022/06/19 00:02:19;;;;;;;3.50;2.58;;;;;;;14.32;100.00;100896.43;1778762;80;21019;-43
2022/06/19 00:04:45;;;;;;;3.02;2.67;;;;;;;14.25;100.00;100894.86;1770045;79;22180;-44
2022/06/19 00:07:11;;;;;;;4.12;3.17;;;;;;;14.20;100.00;100896.31;1753029;80;20949;-43
2022/06/19 00:09:38;;;;;;;6.25;3.55;;;;;;;14.16;100.00;100901.63;1757256;80;21826;-43
2022/06/19 00:12:08;;;;;;;3.45;3.20;;;;;;;14.11;100.00;100897.00;1760349;79;21014;-43
2022/06/19 00:14:35;;;;;;;3.40;3.00;;;;;;;14.06;100.00;100904.48;1774867;79;21433;-43
2022/06/19 00:17:03;;;;;;;3.70;3.12;;;;;;;14.02;100.00;100907.19;1756601;79;20988;-44
2022/06/19 00:19:32;;;;;;;3.90;3.60;;;;;;;13.98;100.00;100902.50;1758081;79;21090;-43
2022/06/19 00:21:59;;;;;;;3.70;3.40;;;;;;;13.98;100.00;100906.41;1772129;79;21311;-44
2022/06/19 00:24:26;;;;;;;3.72;3.30;;;;;;;14.00;100.00;100905.92;1760919;80;20950;-43
2022/06/19 00:26:55;;;;;;;3.72;3.45;;;;;;;14.02;100.00;100909.80;1760348;81;20942;-43
2022/06/19 00:29:21;;;;;;;4.65;4.12;;;;;;;14.03;100.00;100914.98;1761520;81;20859;-43
2022/06/19 00:31:49;;;;;;;8.38;3.80;;;;;;;14.02;100.00;100913.27;1764950;80;21535;-44
2022/06/19 00:34:16;;;;;;;4.17;3.70;;;;;;;13.98;100.00;100909.01;1761402;80;21848;-43
2022/06/19 00:36:48;;;;;;;4.70;3.65;;;;;;;13.93;100.00;100913.05;1754279;81;20885;-43
2022/06/19 00:39:12;;;;;;;4.05;3.42;;;;;;;13.89;100.00;100914.03;1774020;80;21437;-43
2022/06/19 00:41:42;;;;;;;4.60;4.12;;;;;;;13.88;100.00;100919.25;1767284;79;20942;-43
2022/06/19 00:44:10;;;;;;;9.35;4.15;;;;;;;13.87;100.00;100923.59;1763731;79;21010;-43
2022/06/19 00:46:55;;;;;;;5.65;3.70;;;;;;;13.89;100.00;100928.77;1773603;80;21397;-43
2022/06/19 00:49:56;;;;;;;3.67;3.45;;;;;;;13.89;100.00;100924.44;1781252;78;21385;-42
2022/06/19 00:52:33;;;;;;;4.08;3.67;;;;;;;13.92;100.00;100923.48;1787540;79;21026;-42
2022/06/19 00:55:13;;;;;;;5.55;3.55;;;;;;;13.95;100.00;100931.21;1778033;79;20877;-42
2022/06/19 00:57:42;;;;;;;4.62;3.47;;;;;;;13.96;100.00;100929.02;1770936;79;20966;-42
2022/06/19 01:00:19;;;;;;;3.98;3.62;;;;;;;13.93;100.00;100933.87;1810698;78;21049;-41
2022/06/19 01:05:48;;;;;;;4.53;4.12;;;;;;;13.90;100.00;100944.79;1808068;79;22680;-43
2022/06/19 01:08:15;;;;;;;4.58;3.17;;;;;;;13.86;100.00;100949.66;1758203;80;21433;-43
2022/06/19 01:10:45;;;;;;;3.90;3.65;;;;;;;13.83;100.00;100953.19;1756138;80;21148;-43
2022/06/19 01:13:14;;;;;;;3.72;3.25;;;;;;;13.82;100.00;100951.94;1758087;80;20975;-43
2022/06/19 01:15:42;;;;;;;3.98;3.65;;;;;;;13.76;100.00;100953.77;1756899;81;21056;-42
2022/06/19 01:18:09;;;;;;;3.62;3.33;;;;;;;13.71;100.00;100954.33;1758478;80;20932;-43
2022/06/19 01:20:36;;;;;;;5.20;3.62;;;;;;;13.69;100.00;100957.88;1751251;81;21421;-42
2022/06/19 01:23:50;;;;;;;3.80;3.60;;;;;;;13.66;100.00;100957.48;1755238;80;21110;-43
2022/06/19 01:26:17;;;;;;;3.77;3.58;;;;;;;13.67;100.00;100963.10;1776532;80;20919;-42
2022/06/19 01:28:54;;;;;;;5.20;3.72;;;;;;;13.68;100.00;100963.51;1792350;80;20963;-42
2022/06/19 01:31:21;;;;;;;4.00;3.60;;;;;;;13.67;100.00;100961.80;1765131;80;21015;-43
2022/06/19 01:33:58;;;;;;;4.03;3.52;;;;;;;13.65;100.00;100961.86;1763834;80;20920;-43
2022/06/19 01:36:24;;;;;;;5.05;3.83;;;;;;;13.65;100.00;100962.28;1754894;80;22345;-43
2022/06/19 01:38:53;;;;;;;6.30;4.00;;;;;;;13.63;100.00;100956.27;1731026;80;20995;-43
2022/06/19 01:41:31;;;;;;;4.00;3.60;;;;;;;13.64;100.00;100963.18;1732242;81;20923;-43
2022/06/19 01:43:59;;;;;;;8.30;3.95;;;;;;;13.65;100.00;100968.36;1756603;80;20971;-43
2022/06/19 01:46:27;;;;;;;5.42;3.67;;;;;;;13.65;100.00;100966.19;1754883;80;21006;-43
2022/06/19 01:48:54;;;;;;;3.92;3.58;;;;;;;13.69;100.00;100967.82;1721654;82;21745;-43
2022/06/19 01:51:21;;;;;;;6.83;3.60;;;;;;;13.72;100.00;100972.95;1735183;82;20912;-43
2022/06/19 01:54:01;;;;;;;3.75;3.45;;;;;;;13.74;100.00;100975.06;1729012;82;21536;-43
2022/06/19 01:56:28;;;;;;;6.08;4.12;;;;;;;13.77;100.00;100975.02;1743853;82;20987;-43
2022/06/19 01:58:57;;;;;;;10.95;3.83;;;;;;;13.84;100.00;100978.77;1725450;82;21090;-43
2022/06/19 02:01:24;;;;;;;3.37;3.17;;;;;;;13.91;100.00;100981.63;1742462;81;21101;-43
2022/06/19 02:03:56;;;;;;;3.47;3.17;;;;;;;13.98;100.00;100982.34;1739921;82;21790;-42
2022/06/19 02:06:29;;;;;;;3.65;3.42;;;;;;;14.06;100.00;100981.27;1717143;82;20898;-43
2022/06/19 02:08:55;;;;;;;3.55;3.35;;;;;;;14.12;100.00;100983.30;1726884;81;21003;-43
2022/06/19 02:11:22;;;;;;;6.03;3.80;;;;;;;14.16;100.00;100984.94;1736552;82;20925;-42
2022/06/19 02:13:49;;;;;;;8.38;3.10;;;;;;;14.19;100.00;100992.66;1735033;82;21144;-43
2022/06/19 02:16:20;;;;;;;5.45;3.20;;;;;;;14.21;100.00;100993.05;1709467;82;21422;-43
2022/06/19 02:18:48;;;;;;;3.35;3.15;;;;;;;14.24;100.00;100994.70;1706572;82;21430;-43
2022/06/19 02:21:19;;;;;;;3.67;3.25;;;;;;;14.26;100.00;100990.30;1706663;84;20865;-44
2022/06/19 02:23:46;;;;;;;3.52;3.30;;;;;;;14.31;100.00;100992.80;1717300;82;20937;-44
2022/06/19 02:26:13;;;;;;;8.85;2.85;;;;;;;14.34;100.00;100990.98;1728148;82;21083;-43
2022/06/19 02:28:44;;;;;;;4.03;2.58;;;;;;;14.37;100.00;100988.30;1721494;82;20929;-44
2022/06/19 02:31:10;;;;;;;3.45;3.25;;;;;;;14.42;100.00;100994.70;1714289;82;21561;-43
2022/06/19 02:33:47;;;;;;;4.60;3.05;;;;;;;14.46;100.00;100996.32;1713981;82;21016;-44
2022/06/19 02:36:44;;;;;;;3.75;2.85;;;;;;;14.48;100.00;100991.92;1721974;82;21070;-42
2022/06/19 02:39:29;;;;;;;4.70;3.20;;;;;;;14.52;100.00;101000.49;1736026;82;21206;-45
2022/06/19 02:42:24;;;;;;;3.37;3.08;;;;;;;14.55;100.00;100995.66;1726676;81;21000;-42
2022/06/19 02:44:54;;;;;;;3.60;3.12;;;;;;;14.58;100.00;100997.75;1733388;82;20960;-43
2022/06/19 02:47:24;;;;;;;3.05;2.60;;;;;;;14.59;100.00;100994.25;1719650;82;20977;-43
2022/06/19 02:49:53;;;;;;;3.52;3.22;;;;;;;14.61;100.00;100995.49;1687561;83;20909;-43
2022/06/19 02:52:20;;;;;;;9.48;2.77;;;;;;;14.63;100.00;100998.91;1713458;82;21252;-43
2022/06/19 02:54:47;;;;;;;5.55;2.80;;;;;;;14.63;100.00;100999.78;1735541;81;20882;-43
2022/06/19 02:57:16;;;;;;;3.45;3.02;;;;;;;14.64;100.00;100996.28;1728776;82;20898;-43
2022/06/19 02:59:43;;;;;;;4.25;3.27;;;;;;;14.68;100.00;101002.70;1718242;82;21688;-42
2022/06/19 03:02:14;;;;;;;3.47;3.17;;;;;;;14.70;100.00;100999.61;1708532;82;21028;-43
2022/06/19 03:04:48;;;;;;;4.92;2.80;;;;;;;14.74;100.00;101002.13;1713111;81;21173;-43
2022/06/19 03:07:14;;;;;;;3.92;2.75;;;;;;;14.80;100.00;101003.26;1736625;81;20983;-43
2022/06/19 03:09:41;;;;;;;6.05;2.67;;;;;;;14.86;100.00;101007.89;1733471;81;21019;-43
2022/06/19 03:12:10;;;;;;;3.52;3.20;;;;;;;14.93;100.00;101006.84;1720599;82;20953;-45
2022/06/19 03:14:36;;;;;;;3.17;2.98;;;;;;;14.99;100.00;101011.01;1724843;81;21454;-42
2022/06/19 03:17:04;;;;;;;5.83;3.35;;;;;;;15.06;100.00;101006.05;1714523;83;21059;-42
2022/06/19 03:19:31;;;;;;;4.47;2.75;;;;;;;15.14;100.00;101009.28;1714225;82;20976;-43
2022/06/19 03:21:59;;;;;;;2.62;2.40;;;;;;;15.21;100.00;101009.97;1716926;82;20932;-42
2022/06/19 03:24:26;;;;;;;6.08;2.80;;;;;;;15.28;100.00;101015.40;1721224;82;21446;-43
2022/06/19 03:26:53;;;;;;;3.30;3.10;;;;;;;15.33;100.00;101014.80;1735839;81;20909;-43
2022/06/19 03:29:21;;;;;;;4.53;2.72;;;;;;;15.41;100.00;101017.63;1723621;82;21873;-44
2022/06/19 03:31:48;;;;;;;3.62;2.80;;;;;;;15.49;100.00;101017.81;1714261;83;20929;-43
2022/06/19 03:34:15;;;;;;;5.28;2.58;;;;;;;15.58;100.00;101017.15;1731113;82;20952;-42
2022/06/19 03:36:42;;;;;;;2.67;2.47;;;;;;;15.66;100.00;101019.06;1729726;82;20956;-43
2022/06/19 03:39:09;;;;;;;2.85;2.67;;;;;;;15.76;99.01;101017.86;1727293;82;21014;-43
2022/06/19 03:41:37;;;;;;;5.20;2.50;;;;;;;15.96;98.72;101022.94;1714389;83;21239;-43
2022/06/19 03:44:05;;;;;;;3.22;2.33;;;;;;;16.19;96.34;101030.05;1727175;82;21027;-42
2022/06/19 03:46:32;;;;;;;2.95;2.20;;;;;;;16.48;95.97;101036.05;1735555;81;20936;-43
2022/06/19 03:48:59;;;;;;;3.98;2.10;;;;;;;16.76;94.84;101032.92;1744175;82;20928;-43
2022/06/19 03:51:27;;;;;;;6.87;2.15;;;;;;;17.03;94.19;101030.25;1720874;82;22342;-43
2022/06/19 03:53:54;;;;;;;3.85;2.17;;;;;;;17.28;92.12;101024.11;1736116;82;21239;-43
2022/06/19 03:56:30;;;;;;;2.95;2.15;;;;;;;17.55;90.57;101020.91;1739577;81;21394;-43
2022/06/19 03:58:58;;;;;;;11.40;1.98;;;;;;;17.77;89.01;101025.31;1744024;81;20933;-43
2022/06/19 04:01:31;;;;;;;9.43;1.95;;;;;;;17.88;86.28;101023.10;1743862;81;20980;-44
2022/06/19 04:03:58;;;;;;;2.58;2.35;;;;;;;18.07;86.30;101021.09;1714768;82;21469;-43
2022/06/19 04:06:31;;;;;;;2.62;1.75;;;;;;;18.33;84.36;101026.57;1740432;81;21545;-44
2022/06/19 04:08:59;;;;;;;1.90;1.80;;;;;;;18.55;82.70;101023.01;1719882;83;20951;-44
2022/06/19 04:11:29;;;;;;;8.75;1.75;;;;;;;18.74;81.86;101020.46;1746124;82;20987;-43
2022/06/19 04:13:57;;;;;;;4.00;1.80;;;;;;;18.92;81.43;101025.80;1676388;85;20966;-44
2022/06/19 04:16:27;;;;;;;3.15;1.62;;;;;;;19.16;80.04;101029.13;1745445;82;20987;-44
2022/06/19 04:18:55;;;;;;;2.10;1.80;;;;;;;19.45;78.79;101033.94;1720265;82;21133;-44
2022/06/19 04:21:26;;;;;;;11.33;1.57;;;;;;;19.62;77.34;101030.55;1736546;82;21553;-44
2022/06/19 04:23:57;;;;;;;4.37;1.75;;;;;;;19.82;76.01;101030.41;1719992;83;20976;-44
2022/06/19 04:26:27;;;;;;;2.77;1.60;;;;;;;20.12;75.21;101026.40;1727315;82;20944;-44
2022/06/19 04:28:54;;;;;;;1.72;1.62;;;;;;;20.44;74.60;101030.97;1748194;81;20833;-44
2022/06/19 04:31:21;;;;;;;10.38;1.80;;;;;;;20.61;72.76;101032.73;1709107;82;21369;-44
2022/06/19 04:33:48;;;;;;;2.62;1.95;;;;;;;20.80;71.12;101032.64;1741732;82;20960;-44
2022/06/19 04:36:18;;;;;;;3.55;1.82;;;;;;;21.01;70.03;101039.02;1720809;82;21489;-44
2022/06/19 04:38:46;;;;;;;3.37;1.82;;;;;;;21.18;70.25;101037.66;1731781;82;21805;-44
2022/06/19 04:41:24;;;;;;;2.05;1.90;;;;;;;21.46;69.13;101037.47;1736739;82;20900;-44
2022/06/19 04:43:52;;;;;;;1.50;1.40;;;;;;;21.54;68.53;101028.66;1720007;82;21237;-44
2022/06/19 04:46:20;;;;;;;3.33;1.40;;;;;;;21.71;68.29;101032.63;1717410;82;21079;-45
2022/06/19 04:48:46;;;;;;;2.98;1.62;;;;;;;21.92;66.77;101035.37;1720095;82;20975;-44
2022/06/19 04:51:15;;;;;;;2.33;1.85;;;;;;;22.13;66.02;101036.87;1720173;82;21567;-44
2022/06/19 04:53:42;;;;;;;2.70;1.57;;;;;;;22.44;65.98;101035.06;1719871;82;21012;-44
2022/06/19 04:56:10;;;;;;;4.95;1.55;;;;;;;22.71;64.35;101040.97;1740850;82;21148;-43
2022/06/19 04:58:37;;;;;;;1.50;1.40;;;;;;;22.70;63.05;101041.42;1749963;82;20983;-44
2022/06/19 05:01:10;;;;;;;1.52;1.40;;;;;;;22.85;62.85;101040.95;1744324;82;20984;-44
2022/06/19 05:03:38;;;;;;;3.50;1.40;;;;;;;22.99;61.40;101050.70;1724424;82;20916;-44
2022/06/19 05:06:05;;;;;;;3.50;1.47;;;;;;;23.02;60.83;101052.28;1732254;82;20976;-44
2022/06/19 05:08:33;;;;;;;1.60;1.50;;;;;;;23.15;60.56;101055.00;1741181;82;21227;-44
2022/06/19 05:11:00;;;;;;;2.15;1.50;;;;;;;23.35;60.49;101055.09;1742151;82;20995;-44
2022/06/19 05:13:26;;;;;;;1.62;1.30;;;;;;;23.60;60.66;101058.36;1729707;82;20979;-43
2022/06/19 05:16:03;;;;;;;2.75;1.50;;;;;;;23.74;59.64;101055.28;1730443;82;20941;-44
2022/06/19 05:18:30;;;;;;;3.02;1.60;;;;;;;23.86;59.48;101060.25;1736451;82;20948;-44
2022/06/19 05:20:58;;;;;;;1.52;1.42;;;;;;;23.86;58.49;101063.75;1714359;82;21074;-44
2022/06/19 05:23:24;;;;;;;2.45;1.50;;;;;;;24.01;58.46;101065.03;1714168;82;20944;-44
2022/06/19 05:26:07;;;;;;;2.77;1.22;;;;;;;24.06;57.72;101063.79;1714527;82;20960;-43
2022/06/19 05:28:34;;;;;;;1.30;1.20;;;;;;;24.00;57.52;101065.48;1719901;82;21460;-44
2022/06/19 05:31:02;;;;;;;4.17;1.30;;;;;;;23.89;57.81;101064.04;1710328;82;21514;-44
2022/06/19 05:33:30;;;;;;;1.25;1.20;;;;;;;23.78;58.04;101058.95;1743853;82;21090;-43
2022/06/19 05:35:57;;;;;;;1.40;1.30;;;;;;;23.88;56.93;101066.31;1730543;81;20936;-44
2022/06/19 05:38:24;;;;;;;2.15;1.30;;;;;;;24.04;56.45;101065.69;1717183;82;21760;-44
2022/06/19 05:40:52;;;;;;;1.95;1.12;;;;;;;24.20;56.18;101065.52;1721449;82;20944;-44
2022/06/19 05:43:20;;;;;;;1.35;1.20;;;;;;;24.22;55.69;101064.10;1714449;83;20905;-44
2022/06/19 05:45:53;;;;;;;1.90;1.42;;;;;;;24.22;55.83;101064.10;1714568;83;21303;-44
2022/06/19 05:48:22;;;;;;;3.02;1.17;;;;;;;24.46;55.33;101064.23;1724157;82;21496;-44
2022/06/19 05:51:08;;;;;;;1.37;1.27;;;;;;;24.65;54.33;101073.57;1744106;82;21462;-44
2022/06/19 05:53:38;;;;;;;;;;;;;;;24.64;54.30;101070.09;1746834;82;20917;-44
2022/06/19 05:56:05;;;;;;;2.90;1.25;;;;;;;24.72;54.05;101076.65;1741783;81;20144;-44
2022/06/19 05:58:32;;;;;;;1.00;1.00;;;;;;;24.78;53.68;101066.98;1726837;82;21248;-45
2022/06/19 06:00:58;;;;;;;1.77;1.35;;;;;;;24.85;53.35;101068.73;1740780;82;20965;-46
2022/06/19 06:03:25;;;;;;;2.55;1.65;;;;;;;24.86;53.39;101072.59;1725576;81;20920;-44
2022/06/19 06:05:52;;;;;;;1.20;1.10;;;;;;;24.78;53.07;101069.63;1718704;83;20891;-44
2022/06/19 06:08:19;;;;;;;2.37;1.20;;;;;;;24.70;52.95;101065.33;1727634;81;20895;-44
2022/06/19 06:10:49;;;;;;;3.05;1.20;;;;;;;24.75;53.71;101069.36;1749453;80;20940;-44
2022/06/19 06:13:17;;;;;;;2.33;1.30;;;;;;;24.83;53.62;101072.80;1721754;83;21518;-44
2022/06/19 06:15:47;;;;;;;3.52;1.47;;;;;;;24.90;52.18;101067.48;1700829;83;20904;-44
2022/06/19 06:18:14;;;;;;;1.80;1.20;;;;;;;24.91;53.68;101069.17;1709767;82;20980;-44
2022/06/19 06:20:41;;;;;;;3.60;1.30;;;;;;;25.05;52.56;101066.02;1709989;84;20951;-45
2022/06/19 06:23:08;;;;;;;1.55;1.35;;;;;;;24.94;50.94;101068.09;1709865;84;21177;-44
2022/06/19 06:25:40;;;;;;;3.80;1.40;;;;;;;24.91;52.39;101061.22;1709838;84;20937;-44
2022/06/19 06:28:04;;;;;;;1.92;1.20;;;;;;;25.06;52.81;101056.66;1709428;82;20936;-44
2022/06/19 06:30:32;;;;;;;3.02;1.25;;;;;;;25.28;53.00;101056.92;1685524;84;21055;-44
2022/06/19 06:32:59;;;;;;;2.70;1.25;;;;;;;25.48;54.30;101055.04;1709802;83;20944;-44
2022/06/19 06:35:26;;;;;;;3.27;1.42;;;;;;;25.73;51.66;101053.25;1709793;83;21056;-44
2022/06/19 06:37:55;;;;;;;1.30;1.20;;;;;;;25.71;50.62;101057.82;1709703;83;20956;-44
2022/06/19 06:40:22;;;;;;;1.17;1.17;;;;;;;25.49;49.65;101052.76;1686374;84;20992;-44
2022/06/19 06:42:51;;;;;;;3.15;1.62;;;;;;;25.33;50.92;101056.11;1709920;83;20949;-44
2022/06/19 06:45:17;;;;;;;2.52;1.30;;;;;;;25.26;51.33;101055.69;1709901;84;20941;-44
2022/06/19 06:47:45;;;;;;;1.42;1.30;;;;;;;25.47;50.84;101052.02;1709690;84;21238;-45
2022/06/19 06:50:12;;;;;;;1.70;1.30;;;;;;;25.56;51.02;101043.03;1709782;84;21449;-45
2022/06/19 06:52:39;;;;;;;5.50;1.30;;;;;;;25.59;50.04;101048.10;1695188;84;20899;-43
2022/06/19 06:55:08;;;;;;;1.30;1.20;;;;;;;25.57;50.95;101047.37;1692725;84;20908;-44
2022/06/19 06:57:34;;;;;;;2.90;1.30;;;;;;;25.57;52.04;101047.37;1663297;86;21662;-44
2022/06/19 07:00:01;;;;;;;1.25;1.17;;;;;;;25.82;49.63;101048.59;1692683;84;21078;-44
2022/06/19 07:02:28;;;;;;;4.25;1.20;;;;;;;25.93;50.20;101049.61;1663123;86;20911;-44
2022/06/19 07:04:56;;;;;;;2.30;1.27;;;;;;;25.97;48.84;101050.58;1702308;82;20990;-44
2022/06/19 07:07:22;;;;;;;86.05;4.85;;;;;;;25.94;48.67;101046.83;1720789;82;20895;-44
2022/06/19 07:09:51;;;;;;;3.35;1.67;;;;;;;26.01;48.91;101042.39;1721760;83;20951;-44
2022/06/19 07:12:18;;;;;;;1.62;1.50;;;;;;;26.29;47.84;101046.49;1695120;83;21154;-44
2022/06/19 07:14:46;;;;;;;2.75;1.12;;;;;;;26.52;46.25;101039.91;1721753;83;21010;-46
2022/06/19 07:17:13;;;;;;;11.60;1.57;;;;;;;26.63;46.26;101043.89;1719898;83;20896;-44
2022/06/19 07:19:40;;;;;;;1.10;1.00;;;;;;;26.74;46.18;101048.36;1721616;83;20999;-44
2022/06/19 07:22:14;;;;;;;1.27;1.17;;;;;;;26.64;43.85;101046.08;1721715;83;20940;-44
2022/06/19 07:24:42;;;;;;;1.92;1.27;;;;;;;26.35;45.21;101039.39;1721689;82;21436;-44
2022/06/19 07:27:09;;;;;;;2.87;1.65;;;;;;;26.32;43.57;101036.97;1706311;83;21007;-44
2022/06/19 07:29:41;;;;;;;1.10;1.00;;;;;;;26.18;44.46;101044.66;1663414;85;20884;-44
2022/06/19 07:32:10;;;;;;;3.85;1.20;;;;;;;26.15;44.54;101040.05;1692777;84;21034;-45
2022/06/19 07:34:38;;;;;;;1.32;1.12;;;;;;;26.14;46.09;101042.30;1663354;85;21469;-44
2022/06/19 07:37:06;;;;;;;3.37;1.30;;;;;;;26.34;45.07;101048.31;1694727;83;21073;-45
2022/06/19 07:39:35;;;;;;;3.17;1.40;;;;;;;26.57;42.12;101044.87;1663319;86;20919;-44
2022/06/19 07:42:05;;;;;;;3.70;1.30;;;;;;;26.82;42.17;101045.98;1692802;84;20943;-44
2022/06/19 07:44:32;;;;;;;3.27;1.50;;;;;;;27.05;41.67;101046.00;1663303;86;20928;-44
2022/06/19 08:01:08;;;;;;;2.42;1.27;;;;;;;28.62;37.51;101028.38;1780551;80;22978;-42
2022/06/19 08:03:35;;;;;;;1.12;1.02;;;;;;;28.59;38.00;101025.98;1759183;81;20876;-44
2022/06/19 08:06:03;;;;;;;2.75;1.00;;;;;;;28.71;38.02;101026.23;1759329;81;21252;-44
2022/06/19 08:08:32;;;;;;;1.87;0.95;;;;;;;28.99;37.62;101020.34;1759001;81;21010;-43
2022/06/19 08:11:00;;;;;;;3.30;1.45;;;;;;;29.24;38.03;101020.33;1758933;81;21500;-43
2022/06/19 08:13:32;;;;;;;1.85;1.00;;;;;;;29.39;38.46;101020.77;1759132;81;20944;-43
2022/06/19 08:16:03;;;;;;;7.12;1.20;;;;;;;29.61;37.98;101016.19;1759112;81;21389;-44
2022/06/19 08:18:31;;;;;;;1.20;1.10;;;;;;;29.64;39.43;101018.58;1758389;81;21161;-44
2022/06/19 08:20:58;;;;;;;2.37;1.10;;;;;;;29.28;39.79;101028.39;1757446;81;20889;-45
2022/06/19 08:23:25;;;;;;;1.20;0.90;;;;;;;28.65;38.97;101026.27;1757685;81;21513;-44
2022/06/19 08:25:51;;;;;;;1.67;1.00;;;;;;;27.85;39.96;101030.36;1757557;81;21039;-44
2022/06/19 08:28:27;;;;;;;1.75;0.85;;;;;;;27.22;42.60;101029.19;1724008;81;20896;-41
2022/06/19 08:30:51;;;;;;;1.55;1.02;;;;;;;26.83;41.81;101034.86;1758915;81;21165;-43
2022/06/19 08:33:19;;;;;;;1.25;0.90;;;;;;;26.43;41.93;101028.69;1759126;81;20912;-42
2022/06/19 08:35:50;;;;;;;1.15;1.00;;;;;;;25.99;41.94;101027.07;1759113;81;20990;-42
2022/06/19 08:38:25;;;;;;;2.00;1.10;;;;;;;25.67;41.66;101027.20;1758539;81;20971;-43
2022/06/19 08:41:28;;;;;;;3.08;1.00;;;;;;;25.38;43.00;101024.36;1754235;81;21038;-42
2022/06/19 08:44:38;;;;;;;0.80;0.80;;;;;;;25.37;42.89;101016.05;1725044;81;21589;-41
2022/06/19 08:47:46;;;;;;;2.55;0.80;;;;;;;25.80;43.61;101011.23;1747086;82;20981;-43
2022/06/19 08:50:31;;;;;;;1.82;0.72;;;;;;;26.38;42.01;101011.28;1742853;82;21489;-43
2022/06/19 08:53:24;;;;;;;3.33;0.87;;;;;;;26.92;39.30;101006.30;1751610;81;20952;-42
2022/06/19 08:56:08;;;;;;;1.47;0.90;;;;;;;27.18;38.34;101003.36;1757096;81;21490;-42
2022/06/19 08:59:01;;;;;;;4.53;0.90;;;;;;;27.49;38.78;100999.53;1701031;84;21287;-44
2022/06/19 09:01:36;;;;;;;5.03;1.00;;;;;;;27.73;38.76;100994.52;1710470;84;20936;-43
2022/06/19 09:07:17;;;;;;;1.27;0.90;;;;;;;28.44;36.55;100998.86;1673405;84;21020;-42
2022/06/19 09:10:09;;;;;;;1.25;0.98;;;;;;;28.63;36.65;100997.60;1709186;84;20944;-44
2022/06/19 09:12:55;;;;;;;1.65;0.90;;;;;;;28.81;36.48;100990.35;1710442;84;21426;-43
2022/06/19 09:15:39;;;;;;;1.92;0.80;;;;;;;28.81;36.00;100989.02;1709928;84;21000;-44
2022/06/19 09:18:11;;;;;;;2.12;0.88;;;;;;;28.58;35.78;100987.02;1694198;84;20925;-42
2022/06/19 09:20:53;;;;;;;1.17;0.98;;;;;;;28.87;36.40;100988.47;1697380;84;21011;-44
2022/06/19 09:23:31;;;;;;;4.60;0.80;;;;;;;28.99;35.92;100987.05;1725429;83;20963;-43
2022/06/19 09:26:08;;;;;;;1.20;0.70;;;;;;;29.14;34.15;100986.16;1723866;83;21318;-43
2022/06/19 09:28:54;;;;;;;2.00;0.70;;;;;;;29.16;36.02;100982.87;1689266;83;21556;-44
2022/06/19 09:31:29;;;;;;;2.45;0.90;;;;;;;29.35;34.47;100979.37;1738704;81;20941;-43
2022/06/19 09:34:31;;;;;;;38.65;3.15;;;;;;;29.41;35.65;100977.52;1739540;82;20929;-43
2022/06/19 09:37:41;;;;;;;1.65;1.05;;;;;;;29.37;35.06;100985.41;1736172;82;20897;-45
2022/06/19 09:40:23;;;;;;;5.10;1.00;;;;;;;29.42;34.38;100987.20;1735249;82;21242;-44
2022/06/19 09:43:02;;;;;;;0.68;0.68;;;;;;;29.56;34.52;100987.78;1739605;81;20892;-43
2022/06/19 09:45:41;;;;;;;0.70;0.70;;;;;;;29.74;34.48;100990.58;1736008;82;20968;-44
2022/06/19 09:48:37;;;;;;;7.35;0.88;;;;;;;29.63;35.07;100980.89;1726243;81;20980;-43
2022/06/19 09:51:19;;;;;;;1.45;1.27;;;;;;;29.83;33.92;100972.41;1743024;81;20933;-44
2022/06/19 09:54:06;;;;;;;0.70;0.70;;;;;;;30.06;34.15;100973.42;1731902;82;22144;-43
2022/06/19 09:56:55;;;;;;;0.72;0.72;;;;;;;30.10;30.25;100969.00;1747812;81;20945;-44
2022/06/19 09:59:30;;;;;;;2.40;1.22;;;;;;;30.05;31.39;100971.27;1714513;82;20996;-42
2022/06/19 10:02:01;;;;;;;1.77;0.70;;;;;;;30.30;33.14;100976.09;1743914;82;21411;-44
2022/06/19 10:04:44;;;;;;;1.80;0.80;;;;;;;30.57;30.26;100981.12;1748181;81;20885;-44
2022/06/19 10:07:32;;;;;;;1.62;0.90;;;;;;;30.78;32.50;100981.77;1736285;81;21157;-43
2022/06/19 10:10:03;;;;;;;1.20;0.80;;;;;;;30.83;32.58;100969.30;1728734;82;21492;-44
2022/06/19 10:12:36;;;;;;;2.50;0.80;;;;;;;30.38;32.46;100971.72;1736174;82;20979;-44
2022/06/19 10:15:08;;;;;;;1.20;0.62;;;;;;;30.36;33.70;100964.35;1746185;82;21410;-44
2022/06/19 10:17:55;;;;;;;1.75;0.65;;;;;;;30.53;33.50;100973.92;1737391;81;20944;-44
2022/06/19 10:20:30;;;;;;;0.60;0.60;;;;;;;30.58;33.33;100971.65;1742669;82;21255;-42
2022/06/19 10:23:20;;;;;;;4.87;0.85;;;;;;;30.16;31.28;100966.25;1709807;81;22619;-44
2022/06/19 10:26:20;;;;;;;0.70;0.70;;;;;;;29.74;31.05;100973.23;1767113;80;20924;-44
2022/06/19 10:29:13;;;;;;;1.00;0.70;;;;;;;29.66;33.89;100971.27;1743360;82;20983;-44
2022/06/19 10:32:18;;;;;;;0.85;0.85;;;;;;;29.89;33.11;100963.83;1764995;81;20988;-43
2022/06/19 10:35:12;;;;;;;2.98;1.25;;;;;;;29.98;33.85;100964.80;1755676;81;21986;-42
2022/06/19 10:37:47;;;;;;;;;;;;;;;29.78;34.83;100962.16;1806249;79;20939;-43
2022/06/19 10:40:22;;;;;;;1.07;0.90;;;;;;;29.81;36.43;100957.86;1771812;79;20153;-42
2022/06/19 10:43:12;;;;;;;2.40;0.90;;;;;;;30.00;34.56;100953.48;1769647;80;21038;-43
2022/06/19 10:45:58;;;;;;;1.55;0.90;;;;;;;30.19;33.97;100949.95;1769535;80;21476;-44
2022/06/19 10:48:36;;;;;;;0.70;0.70;;;;;;;30.33;33.20;100943.30;1774493;80;21070;-43
2022/06/19 10:51:43;;;;;;;2.37;0.70;;;;;;;30.33;33.57;100950.48;1770607;80;21285;-44
2022/06/19 10:54:30;;;;;;;2.77;0.90;;;;;;;30.15;34.07;100950.38;1685433;84;20992;-44
2022/06/19 10:57:08;;;;;;;3.60;1.02;;;;;;;29.90;33.31;100951.31;1701120;82;20945;-43
2022/06/19 10:59:35;;;;;;;2.33;1.00;;;;;;;29.93;34.78;100947.88;1740561;81;21485;-43
2022/06/19 11:05:06;;;;;;;3.80;1.07;;;;;;;30.46;35.10;100942.13;1735141;82;20979;-43
2022/06/19 11:07:33;;;;;;;5.00;1.15;;;;;;;30.31;34.86;100938.59;1752385;82;20940;-44
2022/06/19 11:10:16;;;;;;;2.00;1.00;;;;;;;30.06;35.08;100940.07;1752584;82;20987;-44
2022/06/19 11:12:48;;;;;;;1.70;1.00;;;;;;;29.88;35.63;100947.95;1738307;82;22780;-44
2022/06/19 11:15:30;;;;;;;1.62;1.15;;;;;;;29.87;35.94;100937.79;1753378;81;21220;-44
2022/06/19 11:18:16;;;;;;;3.22;0.93;;;;;;;29.77;35.26;100938.28;1750768;81;20941;-44
2022/06/19 11:21:04;;;;;;;2.33;1.22;;;;;;;29.69;36.98;100936.34;1760840;81;20948;-44
2022/06/19 11:23:54;;;;;;;1.05;1.00;;;;;;;29.90;35.99;100935.31;1753286;81;21484;-44
2022/06/19 11:26:45;;;;;;;3.17;1.10;;;;;;;29.91;36.53;100931.66;1674764;85;20936;-44
2022/06/19 11:29:20;;;;;;;1.82;0.95;;;;;;;29.85;36.53;100943.77;1656120;85;21096;-44
2022/06/19 11:32:13;;;;;;;4.20;1.10;;;;;;;29.66;34.92;100941.47;1708026;84;21425;-42
2022/06/19 11:34:51;;;;;;;2.45;0.90;;;;;;;29.62;36.23;100937.41;1663172;85;21609;-43
2022/06/19 11:37:30;;;;;;;2.55;0.90;;;;;;;29.75;35.26;100935.77;1706182;84;20908;-43
2022/06/19 11:40:05;;;;;;;4.97;1.20;;;;;;;29.78;36.19;100936.81;1703636;84;20908;-44
2022/06/19 11:42:51;;;;;;;5.83;1.27;;;;;;;29.86;35.59;100941.92;1667587;85;21285;-43
2022/06/19 11:45:24;;;;;;;2.77;0.90;;;;;;;29.74;34.34;100941.23;1663884;85;21493;-44
2022/06/19 11:47:59;;;;;;;2.00;0.90;;;;;;;29.42;36.17;100939.72;1687493;82;20944;-42
2022/06/19 11:50:37;;;;;;;2.22;1.00;;;;;;;29.45;36.05;100938.96;1709255;84;20955;-43
2022/06/19 11:53:15;;;;;;;1.62;1.22;;;;;;;29.69;36.95;100939.02;1672124;85;20890;-43
2022/06/19 11:55:48;;;;;;;2.37;0.98;;;;;;;29.85;35.21;100938.91;1730671;82;22237;-43
2022/06/19 11:58:38;;;;;;;3.40;0.93;;;;;;;30.06;35.59;100944.08;1674359;85;20992;-44
2022/06/19 12:01:11;;;;;;;3.00;0.90;;;;;;;30.03;36.24;100937.22;1728248;81;20962;-44
2022/06/19 12:03:55;;;;;;;3.08;0.62;;;;;;;29.86;34.37;100951.25;1703809;84;20991;-43
2022/06/19 12:06:50;;;;;;;1.00;0.78;;;;;;;29.48;34.97;100951.15;1709180;84;20994;-44
2022/06/19 12:09:38;;;;;;;4.15;0.93;;;;;;;29.45;35.57;100952.77;1751107;81;21306;-44
2022/06/19 12:12:12;;;;;;;6.25;1.00;;;;;;;29.44;34.60;100956.41;1753238;80;20924;-44
2022/06/19 12:15:02;;;;;;;0.90;0.90;;;;;;;29.44;35.02;100947.08;1774888;80;20888;-43